Time;durP1;ratioP1;P1;durP2;ratioP2;P2;SDS_P1;SDS_P2;PMS_P1;PMS_P2;Temp;Humidity;BMP_temperature;BMP_pressure;BME280_temperature;BME280_humidity;BME280_pressure;Samples;Min_cycle;Max_cycle;Signal;HPM_P1;HPM_P2
2022/10/15 00:00:53;;;;;;;8.73;3.12;;;;;;;17.88;40.62;102249.12;1701855;83;21541;-50
2022/10/15 00:03:21;;;;;;;5.70;2.25;;;;;;;17.88;39.90;102247.80;1709710;82;21511;-52
2022/10/15 00:05:49;;;;;;;7.20;2.22;;;;;;;17.89;39.68;102248.64;1702898;82;21463;-50
2022/10/15 00:08:15;;;;;;;6.58;2.65;;;;;;;17.91;39.63;102249.94;1703254;82;21085;-50
2022/10/15 00:10:42;;;;;;;6.40;2.20;;;;;;;17.92;39.59;102245.06;1705825;82;21082;-50
2022/10/15 00:13:09;;;;;;;5.50;2.05;;;;;;;17.92;39.36;102245.06;1706149;82;21468;-50
2022/10/15 00:15:36;;;;;;;4.70;2.35;;;;;;;17.93;39.22;102238.43;1701924;83;21050;-49
2022/10/15 00:18:03;;;;;;;7.00;2.20;;;;;;;17.95;39.60;102245.00;1706165;82;21054;-50
2022/10/15 00:20:30;;;;;;;12.20;2.10;;;;;;;17.96;39.96;102248.02;1703709;82;21026;-53
2022/10/15 00:22:57;;;;;;;4.97;2.22;;;;;;;17.97;40.20;102252.40;1699430;82;21081;-50
2022/10/15 00:25:24;;;;;;;5.87;1.92;;;;;;;17.99;40.39;102247.47;1703329;82;21523;-50
2022/10/15 00:27:50;;;;;;;8.28;2.52;;;;;;;18.00;40.42;102249.66;1705215;82;21097;-50
2022/10/15 00:30:18;;;;;;;8.58;2.25;;;;;;;18.01;40.26;102246.13;1703516;82;21093;-50
2022/10/15 00:32:45;;;;;;;5.67;2.40;;;;;;;18.01;39.90;102247.45;1704947;82;21034;-50
2022/10/15 00:35:13;;;;;;;6.53;2.10;;;;;;;18.03;39.59;102244.32;1705438;83;21042;-51
2022/10/15 00:37:42;;;;;;;6.80;2.08;;;;;;;18.04;39.33;102246.03;1706264;82;21046;-54
2022/10/15 00:40:11;;;;;;;8.70;2.72;;;;;;;18.04;39.32;102246.03;1706402;82;21010;-52
2022/10/15 00:42:39;;;;;;;5.35;2.10;;;;;;;18.06;39.16;102244.21;1688226;83;21487;-51
2022/10/15 00:45:10;;;;;;;6.97;2.15;;;;;;;18.06;38.91;102241.13;1708229;82;20995;-51
2022/10/15 00:47:47;;;;;;;4.42;2.12;;;;;;;18.08;39.20;102241.08;1703576;82;21046;-49
2022/10/15 00:50:23;;;;;;;3.65;2.17;;;;;;;18.08;39.11;102246.34;1703384;82;21574;-51
2022/10/15 00:53:06;;;;;;;3.80;1.80;;;;;;;18.08;39.04;102245.03;1698305;82;20983;-52
2022/10/15 00:55:38;;;;;;;3.37;1.72;;;;;;;18.08;39.13;102245.03;1706331;82;21026;-51
2022/10/15 00:58:14;;;;;;;3.70;1.62;;;;;;;18.09;38.68;102245.45;1706768;82;21121;-50
2022/10/15 01:00:41;;;;;;;5.50;2.00;;;;;;;18.07;38.92;102245.52;1619084;87;21122;-51
2022/10/15 01:03:09;;;;;;;4.55;2.00;;;;;;;18.06;38.66;102241.58;1622444;87;21029;-50
2022/10/15 01:05:36;;;;;;;3.83;1.77;;;;;;;18.07;38.62;102255.17;1622268;87;21070;-50
2022/10/15 01:08:04;;;;;;;3.22;2.00;;;;;;;18.05;38.30;102253.91;1621810;88;21109;-51
2022/10/15 01:10:39;;;;;;;2.83;1.77;;;;;;;18.05;38.13;102252.59;1620732;87;21030;-50
2022/10/15 01:13:21;;;;;;;3.05;1.67;;;;;;;18.05;37.83;102254.36;1545203;93;21587;-51
2022/10/15 01:15:56;;;;;;;5.67;1.80;;;;;;;18.06;37.70;102256.94;1546054;93;21119;-50
2022/10/15 01:18:30;;;;;;;6.60;1.90;;;;;;;18.05;38.30;102252.59;1512363;95;21113;-55
2022/10/15 01:21:08;;;;;;;4.15;2.15;;;;;;;18.06;38.26;102253.44;1516632;95;21053;-52
2022/10/15 01:23:47;;;;;;;3.80;1.65;;;;;;;18.06;38.29;102252.11;1516422;93;21143;-50
2022/10/15 01:27:00;;;;;;;7.20;2.20;;;;;;;18.07;37.87;102256.49;1512337;95;21123;-50
2022/10/15 01:29:49;;;;;;;5.45;2.27;;;;;;;18.06;38.04;102250.80;1516623;95;21103;-52
2022/10/15 01:32:26;;;;;;;3.72;1.87;;;;;;;18.05;37.86;102246.45;1514195;95;21587;-52
2022/10/15 01:35:25;;;;;;;7.05;2.30;;;;;;;18.05;37.68;102249.09;1470189;98;21590;-49
2022/10/15 01:38:14;;;;;;;6.53;2.95;;;;;;;18.04;37.70;102255.25;1470003;96;21129;-50
2022/10/15 01:40:49;;;;;;;6.62;2.00;;;;;;;18.02;37.77;102252.66;1466705;96;21170;-51
2022/10/15 01:43:24;;;;;;;4.75;2.00;;;;;;;18.02;37.18;102247.40;1432437;100;21849;-50
2022/10/15 01:46:14;;;;;;;4.00;1.80;;;;;;;18.02;37.08;102249.16;1415048;100;21635;-50
2022/10/15 01:48:56;;;;;;;4.53;2.83;;;;;;;18.03;37.45;102249.59;1356615;106;21134;-50
2022/10/15 01:51:23;;;;;;;2.83;2.00;;;;;;;18.04;37.35;102247.34;1354412;106;21129;-50
2022/10/15 01:53:50;;;;;;;4.37;2.02;;;;;;;18.05;36.77;102247.77;1353905;106;21126;-51
2022/10/15 01:56:20;;;;;;;5.92;1.95;;;;;;;18.06;36.95;102245.53;1353528;106;21117;-55
2022/10/15 01:58:48;;;;;;;4.12;2.10;;;;;;;18.07;37.38;102252.54;1361145;104;21178;-52
2022/10/15 02:01:16;;;;;;;7.87;2.85;;;;;;;18.05;37.13;102247.77;1377252;104;22371;-51
2022/10/15 02:03:47;;;;;;;6.15;2.30;;;;;;;18.03;36.68;102240.37;1394891;101;21116;-55
2022/10/15 02:06:17;;;;;;;;;;;;;;;18.03;36.90;102250.45;1406420;102;21087;-50
2022/10/15 02:09:01;;;;;;;2.77;1.30;;;;;;;18.04;36.65;102248.66;1404216;102;20210;-48
2022/10/15 02:11:27;;;;;;;5.75;2.20;;;;;;;18.03;36.82;102241.69;1353459;104;21159;-49
2022/10/15 02:14:07;;;;;;;6.97;2.00;;;;;;;18.04;37.33;102247.34;1342165;105;21159;-51
2022/10/15 02:16:48;;;;;;;3.87;1.95;;;;;;;18.04;37.35;102242.08;1343151;105;21213;-52
2022/10/15 02:19:32;;;;;;;4.92;2.12;;;;;;;18.05;37.14;102251.72;1345982;105;21202;-50
2022/10/15 02:22:08;;;;;;;5.78;1.90;;;;;;;18.04;36.88;102247.34;1345799;105;21722;-50
2022/10/15 02:24:42;;;;;;;5.40;2.75;;;;;;;18.04;36.60;102246.03;1313687;105;21157;-50
2022/10/15 02:27:10;;;;;;;3.42;2.00;;;;;;;18.03;36.42;102244.32;1362170;105;21217;-50
2022/10/15 02:29:37;;;;;;;6.53;1.98;;;;;;;18.03;36.13;102246.95;1362054;105;21175;-49
2022/10/15 02:32:05;;;;;;;7.35;2.20;;;;;;;18.01;36.39;102241.70;1437729;97;21133;-49
2022/10/15 02:34:33;;;;;;;6.40;1.90;;;;;;;18.01;36.22;102250.09;1455710;97;21077;-54
2022/10/15 02:37:03;;;;;;;7.70;2.10;;;;;;;18.01;36.41;102242.19;1455652;98;21125;-50
2022/10/15 02:39:32;;;;;;;7.80;2.35;;;;;;;18.01;36.68;102242.19;1465829;96;21084;-50
2022/10/15 02:41:58;;;;;;;4.20;1.70;;;;;;;18.00;36.76;102241.76;1486244;95;21091;-49
2022/10/15 02:44:26;;;;;;;5.17;1.80;;;;;;;18.00;36.50;102245.27;1486390;95;21656;-49
2022/10/15 02:46:53;;;;;;;3.62;1.80;;;;;;;18.00;36.11;102241.76;1487714;95;21095;-49
2022/10/15 02:49:20;;;;;;;4.87;1.87;;;;;;;18.00;36.06;102240.44;1553744;88;21126;-55
2022/10/15 02:51:48;;;;;;;5.45;2.00;;;;;;;18.00;36.57;102243.95;1588036;89;21109;-49
2022/10/15 02:54:16;;;;;;;4.55;1.80;;;;;;;18.00;36.47;102249.66;1588213;88;21042;-52
2022/10/15 02:56:45;;;;;;;4.75;2.15;;;;;;;17.99;36.38;102247.95;1555115;90;21061;-49
2022/10/15 02:59:11;;;;;;;4.87;2.00;;;;;;;17.99;36.25;102242.20;1582095;89;21110;-52
2022/10/15 03:01:39;;;;;;;5.33;1.67;;;;;;;18.00;35.90;102240.44;1618899;84;21045;-51
2022/10/15 03:04:06;;;;;;;6.40;2.20;;;;;;;17.99;35.63;102242.69;1672827;84;21040;-49
2022/10/15 03:06:33;;;;;;;5.10;2.00;;;;;;;17.98;35.83;102243.58;1672404;84;21049;-49
2022/10/15 03:09:00;;;;;;;4.03;1.90;;;;;;;17.97;35.84;102240.55;1679372;85;21048;-53
2022/10/15 03:11:27;;;;;;;2.70;2.05;;;;;;;17.95;36.69;102237.94;1677788;83;21082;-50
2022/10/15 03:13:54;;;;;;;3.65;1.82;;;;;;;17.94;36.20;102244.13;1715075;82;21249;-50
2022/10/15 03:16:23;;;;;;;8.15;2.30;;;;;;;17.92;35.59;102240.67;1702562;83;21085;-51
2022/10/15 03:18:50;;;;;;;2.37;1.85;;;;;;;17.92;35.62;102237.17;1699263;82;20994;-50
2022/10/15 03:21:18;;;;;;;4.90;2.25;;;;;;;17.92;35.81;102237.17;1703850;82;21007;-53
2022/10/15 03:23:44;;;;;;;4.08;1.80;;;;;;;17.91;35.83;102236.77;1703681;82;21018;-51
2022/10/15 03:26:13;;;;;;;5.17;2.10;;;;;;;17.91;36.01;102238.09;1704616;82;21102;-54
2022/10/15 03:28:41;;;;;;;4.22;2.00;;;;;;;17.88;35.86;102237.27;1706771;82;21018;-54
2022/10/15 03:31:08;;;;;;;7.20;2.00;;;;;;;17.89;34.76;102238.11;1705983;82;21018;-52
2022/10/15 03:33:35;;;;;;;4.67;2.17;;;;;;;17.88;34.77;102232.00;1704319;82;21042;-50
2022/10/15 03:36:04;;;;;;;6.62;2.17;;;;;;;17.88;35.07;102230.69;1702866;82;21025;-50
2022/10/15 03:38:31;;;;;;;5.30;1.87;;;;;;;17.87;35.52;102230.27;1705781;83;20991;-51
2022/10/15 03:41:01;;;;;;;4.47;2.00;;;;;;;17.86;35.95;102239.09;1707162;82;21073;-49
2022/10/15 03:43:36;;;;;;;4.55;2.05;;;;;;;17.87;35.52;102230.27;1693908;82;21070;-49
2022/10/15 03:46:06;;;;;;;4.33;1.92;;;;;;;17.84;35.17;102235.63;1705907;82;21072;-49
2022/10/15 03:48:37;;;;;;;4.03;1.60;;;;;;;17.82;34.86;102238.77;1712717;82;21003;-50
2022/10/15 03:51:05;;;;;;;3.30;1.70;;;;;;;17.81;34.69;102242.29;1706965;82;21049;-50
2022/10/15 03:53:31;;;;;;;5.87;2.15;;;;;;;17.79;34.51;102240.16;1705471;82;21514;-49
2022/10/15 03:56:04;;;;;;;3.60;1.65;;;;;;;17.80;34.86;102239.70;1704496;82;21050;-50
2022/10/15 03:58:31;;;;;;;3.35;2.20;;;;;;;17.79;34.99;102240.59;1709665;82;21597;-51
2022/10/15 04:01:00;;;;;;;4.08;1.77;;;;;;;17.78;35.17;102251.58;1708459;83;21022;-50
2022/10/15 04:03:27;;;;;;;5.47;2.30;;;;;;;17.77;34.58;102245.91;1706971;82;21026;-49
2022/10/15 04:05:55;;;;;;;4.70;1.80;;;;;;;17.77;34.71;102250.31;1707117;82;21046;-50
2022/10/15 04:08:23;;;;;;;3.62;1.80;;;;;;;17.76;35.15;102250.75;1704486;82;21086;-49
2022/10/15 04:10:50;;;;;;;6.35;2.15;;;;;;;17.76;34.77;102250.75;1704245;82;21521;-54
2022/10/15 04:13:17;;;;;;;4.90;1.80;;;;;;;17.76;34.55;102254.70;1705185;82;21026;-50
2022/10/15 04:15:45;;;;;;;3.75;1.85;;;;;;;17.76;34.69;102253.39;1702291;82;21030;-49
2022/10/15 04:18:12;;;;;;;5.58;2.60;;;;;;;17.76;34.99;102257.81;1704647;83;21056;-51
2022/10/15 04:20:41;;;;;;;4.62;1.90;;;;;;;17.75;34.68;102251.67;1701343;82;21033;-50
2022/10/15 04:23:13;;;;;;;5.80;2.15;;;;;;;17.75;34.45;102256.07;1701338;82;21022;-50
2022/10/15 04:25:42;;;;;;;5.40;2.30;;;;;;;17.74;34.68;102252.56;1706600;82;21491;-49
2022/10/15 04:28:09;;;;;;;5.70;1.95;;;;;;;17.74;35.06;102253.88;1706875;82;21132;-50
2022/10/15 04:30:37;;;;;;;4.47;1.82;;;;;;;17.73;35.01;102262.70;1707679;83;21062;-49
2022/10/15 04:33:05;;;;;;;2.70;1.80;;;;;;;17.73;34.82;102258.75;1703963;83;21054;-52
2022/10/15 04:35:33;;;;;;;3.75;1.98;;;;;;;17.73;34.71;102264.02;1710111;82;21010;-49
2022/10/15 04:38:02;;;;;;;3.02;1.67;;;;;;;17.73;34.61;102269.28;1705406;82;21522;-53
2022/10/15 04:40:32;;;;;;;2.98;2.00;;;;;;;17.74;34.63;102268.36;1710464;82;21030;-52
2022/10/15 04:42:59;;;;;;;4.70;1.67;;;;;;;17.74;34.58;102271.00;1705610;82;21057;-52
2022/10/15 04:45:27;;;;;;;5.35;1.92;;;;;;;17.76;34.56;102275.77;1705720;82;21531;-49
2022/10/15 04:47:55;;;;;;;4.58;1.70;;;;;;;17.76;35.02;102278.40;1704620;82;21053;-49
2022/10/15 04:50:22;;;;;;;4.90;2.50;;;;;;;17.76;35.50;102274.45;1675725;83;20975;-49
2022/10/15 04:53:07;;;;;;;3.72;1.80;;;;;;;17.76;35.23;102277.08;1696031;82;21026;-49
2022/10/15 04:55:34;;;;;;;5.83;1.98;;;;;;;17.79;35.02;102278.77;1707374;82;21077;-50
2022/10/15 04:58:01;;;;;;;2.45;1.52;;;;;;;17.79;34.82;102282.28;1708931;82;21023;-53
2022/10/15 05:00:29;;;;;;;3.02;1.65;;;;;;;17.79;34.68;102277.02;1708109;82;21057;-50
2022/10/15 05:03:16;;;;;;;2.85;1.80;;;;;;;17.79;34.26;102275.70;1703643;82;21026;-50
2022/10/15 05:05:46;;;;;;;4.87;2.17;;;;;;;17.80;34.03;102276.09;1706014;83;21030;-50
2022/10/15 05:08:12;;;;;;;3.15;1.95;;;;;;;17.80;34.30;102280.04;1703120;83;21042;-54
2022/10/15 05:10:53;;;;;;;4.72;2.45;;;;;;;17.81;34.42;102280.47;1675187;84;21064;-50
2022/10/15 05:13:22;;;;;;;3.65;2.00;;;;;;;17.81;34.10;102279.16;1674074;84;21040;-50
2022/10/15 05:15:51;;;;;;;2.37;1.52;;;;;;;17.82;34.42;102282.21;1674312;84;21541;-50
2022/10/15 05:18:19;;;;;;;5.60;1.75;;;;;;;17.84;34.79;102283.03;1674214;84;21013;-49
2022/10/15 05:20:49;;;;;;;7.70;2.17;;;;;;;17.87;34.97;102280.74;1674496;84;21040;-49
2022/10/15 05:23:17;;;;;;;4.15;1.70;;;;;;;17.87;34.92;102280.30;1662726;84;21068;-49
2022/10/15 05:25:45;;;;;;;7.67;1.90;;;;;;;17.89;34.95;102283.75;1661366;85;21033;-50
2022/10/15 05:28:14;;;;;;;4.35;1.87;;;;;;;17.91;35.07;102289.45;1664596;85;21089;-49
2022/10/15 05:30:40;;;;;;;3.27;1.72;;;;;;;17.93;34.82;102281.89;1664656;85;21585;-52
2022/10/15 05:33:08;;;;;;;3.80;1.80;;;;;;;17.94;35.08;102288.03;1664826;86;21504;-49
2022/10/15 05:35:36;;;;;;;2.72;1.72;;;;;;;17.95;35.05;102284.50;1664665;85;21069;-49
2022/10/15 05:38:03;;;;;;;2.42;1.72;;;;;;;17.96;34.90;102283.58;1664567;85;21009;-51
2022/10/15 05:40:30;;;;;;;6.08;2.00;;;;;;;17.97;34.86;102291.91;1664819;85;21069;-49
2022/10/15 05:43:01;;;;;;;6.60;2.00;;;;;;;17.98;34.72;102289.22;1587816;89;21100;-51
2022/10/15 05:45:28;;;;;;;4.20;1.90;;;;;;;17.99;34.47;102292.25;1587669;89;21182;-50
2022/10/15 05:47:57;;;;;;;5.45;1.80;;;;;;;18.01;34.52;102289.59;1562317;90;21129;-49
2022/10/15 05:50:24;;;;;;;4.00;1.90;;;;;;;18.03;34.88;102291.28;1579614;89;21080;-52
2022/10/15 05:52:53;;;;;;;7.00;2.30;;;;;;;18.06;35.03;102297.77;1572645;89;21543;-49
2022/10/15 05:55:22;;;;;;;4.70;2.30;;;;;;;18.09;34.87;102295.51;1541499;91;21157;-49
2022/10/15 05:57:48;;;;;;;6.03;2.30;;;;;;;18.11;35.21;102296.33;1541507;91;21067;-52
2022/10/15 06:00:15;;;;;;;4.58;2.02;;;;;;;18.12;35.35;102298.91;1547549;91;21133;-50
2022/10/15 06:02:42;;;;;;;4.10;1.70;;;;;;;18.14;34.82;102305.00;1547729;92;21089;-53
2022/10/15 06:05:08;;;;;;;3.77;2.33;;;;;;;18.17;34.26;102309.32;1547628;91;21600;-49
2022/10/15 06:07:35;;;;;;;5.62;1.80;;;;;;;18.20;34.38;102313.17;1547433;91;21141;-50
2022/10/15 06:10:05;;;;;;;5.30;1.92;;;;;;;18.22;34.79;102310.03;1547474;91;21149;-49
2022/10/15 06:12:34;;;;;;;3.57;1.80;;;;;;;18.27;34.79;102312.09;1534942;91;21178;-52
2022/10/15 06:15:03;;;;;;;5.33;1.98;;;;;;;18.34;34.29;102313.66;1511146;94;21109;-50
2022/10/15 06:17:31;;;;;;;4.30;1.85;;;;;;;18.42;34.09;102311.19;1514999;94;21633;-55
2022/10/15 06:19:59;;;;;;;3.40;1.90;;;;;;;18.53;33.97;102310.91;1514894;94;21048;-50
2022/10/15 06:22:31;;;;;;;4.33;1.75;;;;;;;18.61;33.79;102312.84;1514344;94;21152;-50
2022/10/15 06:24:57;;;;;;;5.50;1.80;;;;;;;18.68;33.41;102313.09;1511538;94;21076;-49
2022/10/15 06:27:24;;;;;;;2.02;1.65;;;;;;;18.74;33.70;102320.80;1513624;94;21567;-52
2022/10/15 06:29:51;;;;;;;5.85;2.08;;;;;;;18.79;33.97;102329.45;1513370;94;21141;-51
2022/10/15 06:32:19;;;;;;;4.60;2.37;;;;;;;18.85;34.08;102328.39;1522806;93;21104;-52
2022/10/15 06:34:45;;;;;;;3.75;2.00;;;;;;;18.89;33.81;102332.21;1539297;92;21085;-50
2022/10/15 06:37:12;;;;;;;5.20;2.05;;;;;;;18.95;33.36;102329.83;1528862;92;21099;-50
2022/10/15 06:39:39;;;;;;;2.72;1.87;;;;;;;18.98;33.10;102333.22;1573429;87;21074;-49
2022/10/15 06:42:06;;;;;;;3.85;1.80;;;;;;;19.01;33.26;102330.50;1617784;87;21137;-50
2022/10/15 06:44:39;;;;;;;5.25;2.27;;;;;;;19.04;33.21;102338.30;1672004;85;21052;-49
2022/10/15 06:47:06;;;;;;;4.12;1.90;;;;;;;19.08;33.02;102328.05;1671926;84;21490;-49
2022/10/15 06:49:33;;;;;;;4.00;1.98;;;;;;;19.12;32.92;102331.03;1672503;84;21493;-50
2022/10/15 06:51:59;;;;;;;5.08;1.95;;;;;;;19.17;33.40;102329.55;1672440;84;21045;-49
2022/10/15 06:54:25;;;;;;;4.72;2.08;;;;;;;19.20;32.57;102336.05;1673544;84;21052;-49
2022/10/15 06:56:52;;;;;;;4.10;1.85;;;;;;;19.23;32.36;102338.13;1675623;84;21548;-49
2022/10/15 06:59:20;;;;;;;6.25;2.25;;;;;;;19.23;32.25;102333.30;1675411;84;21116;-51
2022/10/15 07:01:47;;;;;;;3.95;2.22;;;;;;;19.22;32.36;102335.09;1675338;84;21454;-49
2022/10/15 07:04:14;;;;;;;5.37;2.20;;;;;;;19.20;32.50;102343.52;1671916;85;21098;-49
2022/10/15 07:06:40;;;;;;;7.05;2.00;;;;;;;19.19;33.04;102337.83;1666775;84;21112;-50
2022/10/15 07:09:07;;;;;;;3.33;1.80;;;;;;;19.19;32.86;102339.14;1672994;84;21033;-55
2022/10/15 07:11:33;;;;;;;7.95;2.15;;;;;;;19.20;32.64;102341.33;1674927;84;21067;-49
2022/10/15 07:14:01;;;;;;;5.33;2.20;;;;;;;19.19;32.66;102345.73;1698765;83;21495;-55
2022/10/15 07:16:29;;;;;;;7.08;2.12;;;;;;;19.19;32.46;102348.37;1699446;82;21074;-52
2022/10/15 07:18:57;;;;;;;4.10;2.25;;;;;;;19.20;32.40;102347.48;1704926;82;21003;-49
2022/10/15 07:21:24;;;;;;;4.83;1.90;;;;;;;19.20;32.27;102347.48;1706520;82;21069;-51
2022/10/15 07:23:51;;;;;;;6.95;2.00;;;;;;;19.21;32.36;102346.55;1707738;82;21492;-50
2022/10/15 07:26:17;;;;;;;5.37;1.95;;;;;;;19.21;32.59;102353.15;1707911;82;21030;-56
2022/10/15 07:28:44;;;;;;;3.92;1.95;;;;;;;19.21;32.23;102353.15;1705390;82;21542;-50
2022/10/15 07:31:10;;;;;;;4.28;1.72;;;;;;;19.23;32.09;102353.09;1706278;82;21050;-49
2022/10/15 07:33:37;;;;;;;3.55;1.65;;;;;;;19.24;31.96;102355.70;1707906;83;21041;-49
2022/10/15 07:36:07;;;;;;;4.25;1.77;;;;;;;19.25;31.71;102353.91;1708057;82;21035;-51
2022/10/15 07:38:34;;;;;;;4.53;1.80;;;;;;;19.28;32.45;102354.69;1708609;82;21485;-55
2022/10/15 07:41:01;;;;;;;4.58;1.80;;;;;;;19.30;32.26;102356.83;1705672;82;21042;-50
2022/10/15 07:43:30;;;;;;;4.42;1.70;;;;;;;19.30;32.31;102358.14;1694142;82;21050;-50
2022/10/15 07:45:57;;;;;;;6.35;1.82;;;;;;;19.29;32.25;102359.48;1707520;83;21089;-53
2022/10/15 07:48:24;;;;;;;3.45;1.80;;;;;;;19.27;32.29;102369.23;1708621;83;21002;-50
2022/10/15 07:51:04;;;;;;;4.62;1.85;;;;;;;19.26;31.97;102368.84;1708340;82;21046;-49
2022/10/15 07:53:31;;;;;;;5.30;2.20;;;;;;;19.25;31.76;102367.97;1599433;90;21140;-49
2022/10/15 07:56:00;;;;;;;3.75;1.67;;;;;;;19.24;31.91;102377.27;1616316;89;21077;-50
2022/10/15 07:58:30;;;;;;;3.67;1.50;;;;;;;19.22;31.87;102376.00;1611309;89;21041;-51
2022/10/15 08:01:01;;;;;;;3.92;2.12;;;;;;;19.23;32.25;102380.80;1601748;89;21108;-49
2022/10/15 08:03:29;;;;;;;2.92;1.80;;;;;;;19.21;32.54;102384.81;1616432;89;21069;-50
2022/10/15 08:05:59;;;;;;;4.42;2.00;;;;;;;19.23;32.38;102393.55;1616574;89;21120;-52
2022/10/15 08:08:27;;;;;;;5.30;1.95;;;;;;;19.23;31.87;102392.23;1616395;87;21179;-49
2022/10/15 08:10:54;;;;;;;5.40;2.00;;;;;;;19.25;31.85;102389.53;1601253;90;21107;-51
2022/10/15 08:13:21;;;;;;;4.15;1.80;;;;;;;19.27;31.37;102389.90;1618400;87;21124;-49
2022/10/15 08:15:51;;;;;;;4.00;2.17;;;;;;;19.29;31.50;102393.80;1620488;88;21017;-50
2022/10/15 08:18:19;;;;;;;4.37;1.80;;;;;;;19.30;31.60;102392.45;1625773;88;21569;-53
2022/10/15 08:20:47;;;;;;;5.28;1.90;;;;;;;19.31;31.63;102391.97;1625534;87;21521;-49
2022/10/15 08:23:15;;;;;;;6.17;1.82;;;;;;;19.30;31.64;102391.14;1625700;88;21062;-49
2022/10/15 08:25:43;;;;;;;3.40;1.92;;;;;;;19.32;31.88;102394.59;1625818;88;21088;-52
2022/10/15 08:28:11;;;;;;;3.62;1.87;;;;;;;19.34;31.82;102396.75;1625828;88;21045;-53
2022/10/15 08:30:38;;;;;;;4.87;1.70;;;;;;;19.39;31.35;102395.30;1642197;85;21109;-49
2022/10/15 08:33:06;;;;;;;3.85;1.50;;;;;;;19.42;31.52;102397.38;1670302;85;21585;-49
2022/10/15 08:35:37;;;;;;;3.77;1.60;;;;;;;19.45;31.19;102397.73;1673194;85;21481;-51
2022/10/15 08:38:03;;;;;;;5.30;1.60;;;;;;;19.48;31.22;102399.81;1674029;85;21063;-49
2022/10/15 08:40:30;;;;;;;5.15;1.85;;;;;;;19.51;31.13;102399.30;1674333;85;21053;-50
2022/10/15 08:42:57;;;;;;;4.03;1.77;;;;;;;19.52;31.09;102402.33;1671724;85;21092;-49
2022/10/15 08:45:31;;;;;;;5.95;1.98;;;;;;;19.54;31.49;102401.38;1671219;85;21014;-49
2022/10/15 08:48:05;;;;;;;5.10;2.10;;;;;;;19.57;31.43;102404.38;1665532;85;21049;-49
2022/10/15 08:50:53;;;;;;;5.85;1.60;;;;;;;19.60;31.23;102404.30;1693494;85;21022;-50
2022/10/15 08:53:21;;;;;;;4.17;2.05;;;;;;;19.59;30.84;102391.98;1658571;86;21005;-52
2022/10/15 08:55:50;;;;;;;4.30;1.90;;;;;;;19.59;31.29;102397.27;1694450;85;21069;-49
2022/10/15 08:58:44;;;;;;;3.60;1.82;;;;;;;19.58;31.16;102392.92;1658494;85;21550;-52
2022/10/15 09:01:48;;;;;;;4.72;2.08;;;;;;;19.57;31.07;102393.81;1694223;85;21222;-49
2022/10/15 09:04:58;;;;;;;5.95;2.02;;;;;;;19.54;30.86;102397.41;1652727;86;21066;-50
2022/10/15 09:07:41;;;;;;;5.42;1.40;;;;;;;19.52;30.80;102398.38;1694281;83;21589;-49
2022/10/15 09:10:36;;;;;;;4.72;1.67;;;;;;;19.51;31.06;102394.02;1694592;85;21101;-50
2022/10/15 09:13:30;;;;;;;3.90;1.85;;;;;;;19.52;30.86;102401.02;1695002;84;21071;-50
2022/10/15 09:16:12;;;;;;;8.65;2.25;;;;;;;19.54;30.63;102391.30;1676821;85;21034;-50
2022/10/15 09:18:40;;;;;;;2.72;1.47;;;;;;;19.58;30.82;102395.56;1685115;85;21126;-49
2022/10/15 09:21:08;;;;;;;3.10;1.72;;;;;;;19.60;31.23;102396.37;1685332;85;21105;-55
2022/10/15 09:23:35;;;;;;;6.53;1.90;;;;;;;19.63;30.74;102389.66;1666856;85;21083;-52
2022/10/15 09:26:13;;;;;;;5.50;1.55;;;;;;;19.68;30.79;102390.38;1649636;87;21026;-50
2022/10/15 09:29:06;;;;;;;3.08;1.52;;;;;;;19.72;31.02;102395.95;1620250;88;21558;-51
2022/10/15 09:31:57;;;;;;;6.60;2.02;;;;;;;19.77;31.15;102390.05;1642330;86;21081;-52
2022/10/15 09:34:46;;;;;;;4.08;1.75;;;;;;;19.84;30.94;102392.90;1614078;87;21529;-54
2022/10/15 09:37:24;;;;;;;3.45;1.80;;;;;;;19.88;30.54;102386.59;1494007;95;21150;-49
2022/10/15 09:40:01;;;;;;;4.87;1.87;;;;;;;19.91;30.53;102391.75;1504458;94;21152;-49
2022/10/15 09:42:35;;;;;;;3.47;1.57;;;;;;;19.91;30.01;102395.27;1493744;95;21110;-51
2022/10/15 09:45:12;;;;;;;3.17;1.92;;;;;;;19.91;30.37;102397.91;1503972;95;21225;-50
2022/10/15 09:47:40;;;;;;;4.30;1.70;;;;;;;19.92;30.80;102398.78;1481290;95;21692;-49
2022/10/15 09:50:12;;;;;;;4.10;1.82;;;;;;;19.93;31.08;102399.16;1505345;94;21038;-52
2022/10/15 09:53:00;;;;;;;3.35;1.85;;;;;;;19.95;31.28;102396.01;1505287;94;21182;-50
2022/10/15 09:55:47;;;;;;;2.72;1.60;;;;;;;19.98;30.81;102391.95;1465546;96;21168;-49
2022/10/15 09:58:19;;;;;;;2.45;1.57;;;;;;;19.97;30.64;102394.21;1419997;100;21164;-49
2022/10/15 10:01:00;;;;;;;6.08;1.80;;;;;;;19.97;30.42;102402.14;1415580;101;21641;-50
2022/10/15 10:03:32;;;;;;;5.45;1.55;;;;;;;19.95;30.60;102406.58;1449018;98;21157;-50
2022/10/15 10:06:08;;;;;;;2.62;1.55;;;;;;;19.94;30.81;102404.88;1448957;98;21157;-49
2022/10/15 10:08:52;;;;;;;4.97;1.55;;;;;;;19.93;30.72;102401.80;1447318;97;21155;-50
2022/10/15 10:11:19;;;;;;;5.53;1.67;;;;;;;19.94;30.34;102400.91;1445701;98;21112;-49
2022/10/15 10:13:52;;;;;;;4.87;1.50;;;;;;;19.95;30.45;102404.81;1455006;94;21076;-48
2022/10/15 10:16:19;;;;;;;6.15;1.90;;;;;;;19.97;30.40;102404.78;1496510;95;21115;-49
2022/10/15 10:19:13;;;;;;;4.28;1.82;;;;;;;19.99;30.32;102403.78;1505850;93;21048;-50
2022/10/15 10:21:42;;;;;;;2.65;1.27;;;;;;;20.01;30.05;102397.15;1530627;93;21108;-49
2022/10/15 10:26:58;;;;;;;3.77;1.47;;;;;;;20.05;30.49;102400.09;1446031;98;21126;-53
2022/10/15 10:29:25;;;;;;;5.72;1.50;;;;;;;20.08;30.13;102397.32;1429604;100;21598;-50
2022/10/15 10:31:52;;;;;;;3.75;1.42;;;;;;;20.12;30.16;102398.94;1429656;100;21217;-49
2022/10/15 10:34:31;;;;;;;4.67;1.62;;;;;;;20.15;30.31;102404.13;1429161;100;21135;-50
2022/10/15 10:37:00;;;;;;;6.12;2.00;;;;;;;20.18;30.46;102402.23;1429294;98;21119;-54
2022/10/15 10:39:34;;;;;;;6.03;1.25;;;;;;;20.19;30.30;102396.50;1424523;100;21107;-50
2022/10/15 10:42:04;;;;;;;10.40;1.90;;;;;;;20.22;30.49;102400.37;1429332;100;21067;-49
2022/10/15 10:44:40;;;;;;;3.70;1.20;;;;;;;20.25;30.33;102393.66;1426479;100;21188;-49
2022/10/15 10:47:21;;;;;;;1.92;1.47;;;;;;;20.28;30.47;102397.50;1436436;99;21136;-49
2022/10/15 10:49:56;;;;;;;4.40;1.40;;;;;;;20.28;30.23;102394.86;1449452;98;21088;-50
2022/10/15 10:52:32;;;;;;;4.40;1.47;;;;;;;20.26;30.07;102383.48;1468573;98;21108;-49
2022/10/15 10:55:18;;;;;;;3.35;1.57;;;;;;;20.24;30.22;102391.47;1485909;94;21063;-50
2022/10/15 10:57:51;;;;;;;3.52;1.50;;;;;;;20.21;30.39;102391.59;1527011;91;21566;-56
2022/10/15 11:00:42;;;;;;;5.28;2.12;;;;;;;20.21;30.47;102390.28;1598751;89;21588;-49
2022/10/15 11:03:33;;;;;;;5.50;1.85;;;;;;;20.23;30.66;102384.92;1595107;89;21556;-49
2022/10/15 11:06:33;;;;;;;3.25;1.40;;;;;;;20.28;30.60;102384.77;1596552;88;21050;-50
2022/10/15 11:09:47;;;;;;;2.95;1.55;;;;;;;20.28;30.12;102381.64;1597339;89;21113;-51
2022/10/15 11:12:35;;;;;;;1.70;1.25;;;;;;;20.29;29.77;102380.73;1588879;89;21549;-49
2022/10/15 11:15:38;;;;;;;1.30;1.00;;;;;;;20.28;29.49;102386.09;1593435;89;21076;-50
2022/10/15 11:18:10;;;;;;;3.45;1.25;;;;;;;20.24;29.29;102382.67;1589240;89;21069;-51
2022/10/15 11:21:27;;;;;;;5.22;1.40;;;;;;;20.23;29.63;102378.32;1593101;89;21041;-50
2022/10/15 11:24:40;;;;;;;8.40;1.40;;;;;;;20.23;29.83;102373.91;1642887;82;21510;-49
2022/10/15 11:27:37;;;;;;;2.05;1.05;;;;;;;20.24;30.17;102368.13;1703258;82;21109;-54
2022/10/15 11:30:11;;;;;;;2.02;1.05;;;;;;;20.23;29.51;102363.33;1677298;84;21023;-50
2022/10/15 11:32:54;;;;;;;4.12;1.32;;;;;;;20.22;29.50;102367.33;1674562;84;21028;-53
2022/10/15 11:35:55;;;;;;;1.92;1.00;;;;;;;20.21;29.48;102369.58;1595094;90;21070;-51
2022/10/15 11:38:31;;;;;;;6.58;1.37;;;;;;;20.22;29.17;102369.97;1558300;92;21090;-50
2022/10/15 11:41:18;;;;;;;1.80;1.17;;;;;;;20.23;28.98;102369.06;1592035;90;21090;-50
2022/10/15 11:43:56;;;;;;;4.03;1.32;;;;;;;20.22;29.33;102369.97;1590528;90;21509;-52
2022/10/15 11:46:31;;;;;;;3.40;1.60;;;;;;;20.20;29.63;102363.88;1563532;92;21130;-51
2022/10/15 11:49:34;;;;;;;4.30;1.72;;;;;;;20.21;29.77;102358.56;1563318;92;21086;-50
2022/10/15 11:52:42;;;;;;;1.67;1.00;;;;;;;20.21;29.84;102362.98;1582256;90;21018;-50